Time;durP1;ratioP1;P1;durP2;ratioP2;P2;SDS_P1;SDS_P2;PMS_P1;PMS_P2;Temp;Humidity;BMP_temperature;BMP_pressure;BME280_temperature;BME280_humidity;BME280_pressure;Samples;Min_cycle;Max_cycle;Signal;HPM_P1;HPM_P2
2022/12/05 00:01:42;;;;;;;41.35;21.55;;;4.40;99.90;;;;;;5056605;28;20036;-63
2022/12/05 00:04:11;;;;;;;43.08;21.67;;;4.40;99.90;;;;;;5056623;28;20120;-63
2022/12/05 00:06:39;;;;;;;45.03;22.13;;;4.40;99.90;;;;;;5056705;28;20128;-63
2022/12/05 00:09:06;;;;;;;40.50;20.38;;;4.30;99.90;;;;;;5056657;28;20044;-63
2022/12/05 00:11:39;;;;;;;38.25;21.13;;;4.40;99.90;;;;;;5043105;28;20044;-63
2022/12/05 00:14:07;;;;;;;41.42;20.67;;;4.40;99.90;;;;;;5060423;28;20035;-63
2022/12/05 00:16:36;;;;;;;42.17;21.83;;;4.50;99.90;;;;;;5059644;28;20067;-63
2022/12/05 00:19:03;;;;;;;38.60;20.45;;;4.50;99.90;;;;;;5059426;28;20293;-63
2022/12/05 00:21:31;;;;;;;41.08;20.58;;;4.50;99.90;;;;;;5059447;28;20355;-64
2022/12/05 00:23:58;;;;;;;38.58;21.45;;;4.50;99.90;;;;;;5060147;28;20033;-64
2022/12/05 00:26:24;;;;;;;37.55;21.02;;;4.60;99.90;;;;;;5059313;28;20324;-63
2022/12/05 00:28:50;;;;;;;37.15;20.45;;;4.60;99.90;;;;;;5042869;28;20040;-63
2022/12/05 00:31:22;;;;;;;39.47;21.02;;;4.60;99.90;;;;;;5059379;28;20041;-64
2022/12/05 00:33:49;;;;;;;40.55;21.52;;;4.50;99.90;;;;;;5059220;28;20037;-63
2022/12/05 00:36:20;;;;;;;38.63;20.17;;;4.70;99.90;;;;;;5059141;28;20059;-63
2022/12/05 00:38:46;;;;;;;36.13;20.35;;;4.70;99.90;;;;;;5059367;28;20044;-63
2022/12/05 00:41:17;;;;;;;38.97;20.42;;;4.60;99.90;;;;;;5059074;28;20029;-63
2022/12/05 00:43:43;;;;;;;38.90;20.73;;;4.70;99.90;;;;;;5059763;28;20025;-63
2022/12/05 00:46:13;;;;;;;39.53;19.90;;;4.60;99.90;;;;;;5059091;28;20048;-64
2022/12/05 00:48:39;;;;;;;35.90;19.48;;;4.70;99.90;;;;;;5059212;28;20061;-64
2022/12/05 00:51:15;;;;;;;36.15;20.33;;;4.70;99.90;;;;;;5059922;28;20021;-64
2022/12/05 00:53:41;;;;;;;36.58;19.75;;;4.60;99.90;;;;;;5058993;28;20304;-64
2022/12/05 00:56:10;;;;;;;38.50;21.55;;;4.60;99.90;;;;;;5058941;28;20025;-64
2022/12/05 00:58:36;;;;;;;37.20;20.05;;;4.60;99.90;;;;;;5058958;28;20047;-64
2022/12/05 01:01:10;;;;;;;38.35;20.45;;;4.60;99.90;;;;;;5042292;28;20369;-64
2022/12/05 01:03:36;;;;;;;41.10;21.52;;;4.70;99.90;;;;;;5059567;28;20036;-64
2022/12/05 01:06:04;;;;;;;39.22;20.45;;;4.70;99.90;;;;;;5042150;28;20068;-64
2022/12/05 01:08:31;;;;;;;40.67;21.23;;;4.70;99.90;;;;;;5026003;28;20370;-64
2022/12/05 01:10:57;;;;;;;39.63;21.27;;;4.50;99.90;;;;;;5042117;28;20420;-64
2022/12/05 01:13:24;;;;;;;41.28;21.20;;;4.50;99.90;;;;;;5058493;28;20308;-64
2022/12/05 01:15:50;;;;;;;44.13;21.33;;;4.60;99.90;;;;;;5058544;28;20032;-64
2022/12/05 01:18:17;;;;;;;41.92;21.63;;;4.60;99.90;;;;;;5058654;28;20029;-63
2022/12/05 01:20:44;;;;;;;44.15;22.35;;;4.50;99.90;;;;;;5059093;28;20317;-64
2022/12/05 01:23:10;;;;;;;47.38;22.65;;;4.60;99.90;;;;;;5041532;28;20028;-63
2022/12/05 01:25:41;;;;;;;43.97;22.08;;;4.70;99.90;;;;;;5058368;28;20029;-64
2022/12/05 01:28:07;;;;;;;42.95;20.98;;;4.50;99.90;;;;;;5042318;28;20040;-63
2022/12/05 01:30:38;;;;;;;44.00;22.35;;;4.60;99.90;;;;;;5059069;28;20411;-63
2022/12/05 01:33:05;;;;;;;42.50;22.27;;;4.50;99.90;;;;;;5058926;28;20116;-63
2022/12/05 01:35:32;;;;;;;44.10;22.15;;;4.40;99.90;;;;;;5041599;28;20021;-63
2022/12/05 01:37:58;;;;;;;43.00;22.27;;;4.50;99.90;;;;;;5058221;28;20044;-63
2022/12/05 01:40:24;;;;;;;42.83;22.35;;;4.50;99.90;;;;;;5057975;28;20037;-63
2022/12/05 01:42:50;;;;;;;40.75;21.92;;;4.40;99.90;;;;;;5058635;28;20033;-63
2022/12/05 01:45:29;;;;;;;42.05;21.10;;;4.40;99.90;;;;;;5058018;28;20380;-63
2022/12/05 01:47:55;;;;;;;45.75;23.48;;;4.30;99.90;;;;;;5058596;28;20412;-63
2022/12/05 01:50:21;;;;;;;40.78;21.55;;;4.30;99.90;;;;;;5057899;28;20113;-63
2022/12/05 01:52:47;;;;;;;39.20;21.38;;;4.30;99.90;;;;;;5058018;28;20384;-63
2022/12/05 01:55:16;;;;;;;42.97;23.35;;;4.30;99.90;;;;;;5058436;28;20056;-63
2022/12/05 01:57:44;;;;;;;40.78;22.38;;;4.30;99.90;;;;;;5058608;28;20037;-63
2022/12/05 02:00:16;;;;;;;41.95;22.92;;;4.40;99.90;;;;;;5041274;28;20029;-63
2022/12/05 02:02:49;;;;;;;44.30;23.17;;;4.40;99.90;;;;;;5057993;28;20043;-63
2022/12/05 02:05:28;;;;;;;44.42;23.02;;;4.40;99.90;;;;;;5058523;28;20048;-63
2022/12/05 02:07:55;;;;;;;46.25;23.05;;;4.40;99.90;;;;;;5058960;28;20028;-63
2022/12/05 02:10:21;;;;;;;50.10;22.95;;;4.40;99.90;;;;;;5058515;28;20021;-64
2022/12/05 02:12:52;;;;;;;50.22;24.77;;;4.40;99.90;;;;;;5058606;28;20033;-63
2022/12/05 02:15:36;;;;;;;47.47;23.30;;;4.40;99.90;;;;;;5058180;28;20033;-63
2022/12/05 02:18:40;;;;;;;47.53;23.58;;;4.40;99.90;;;;;;5057360;28;20033;-63
2022/12/05 02:21:28;;;;;;;47.08;23.70;;;4.50;99.90;;;;;;5036612;28;20401;-62
2022/12/05 02:24:29;;;;;;;44.50;23.77;;;4.40;99.90;;;;;;5057956;28;20025;-62
2022/12/05 02:27:09;;;;;;;46.35;24.38;;;4.50;99.90;;;;;;5035198;28;20131;-63
2022/12/05 02:30:06;;;;;;;43.50;23.42;;;4.60;99.90;;;;;;5057827;28;20389;-63
2022/12/05 02:32:47;;;;;;;46.40;24.92;;;4.60;99.90;;;;;;5039115;28;20061;-63
2022/12/05 02:35:39;;;;;;;52.20;24.58;;;4.50;99.90;;;;;;5040394;28;20025;-62
2022/12/05 02:38:18;;;;;;;38.00;18.73;;;4.60;99.90;;;;;;5057676;28;20017;-62
2022/12/05 02:41:01;;;;;;;45.00;23.48;;;4.60;99.90;;;;;;5057552;28;20359;-62
2022/12/05 02:43:58;;;;;;;47.03;24.05;;;4.60;99.90;;;;;;5057534;28;20033;-62
2022/12/05 02:46:28;;;;;;;50.60;24.10;;;4.60;99.90;;;;;;5053716;28;20289;-62
2022/12/05 02:49:01;;;;;;;53.05;25.85;;;4.60;99.90;;;;;;5057488;28;20058;-62
2022/12/05 02:51:33;;;;;;;49.55;24.52;;;4.60;99.90;;;;;;5057407;28;20112;-62
2022/12/05 02:54:04;;;;;;;51.85;25.25;;;4.70;99.90;;;;;;5057408;28;20029;-61
2022/12/05 02:56:33;;;;;;;53.03;26.38;;;4.60;99.90;;;;;;5057278;28;20032;-61
2022/12/05 02:59:00;;;;;;;58.25;27.58;;;4.50;99.90;;;;;;5056541;28;20036;-61
2022/12/05 03:01:29;;;;;;;50.42;26.25;;;4.60;99.90;;;;;;5056436;28;20282;-61
2022/12/05 03:03:58;;;;;;;53.95;26.92;;;4.60;99.90;;;;;;5056358;28;20021;-61
2022/12/05 03:06:43;;;;;;;51.67;25.92;;;4.60;99.90;;;;;;5057032;28;20059;-62
2022/12/05 03:09:23;;;;;;;50.47;26.40;;;4.60;99.90;;;;;;5056424;28;20336;-62
2022/12/05 03:12:11;;;;;;;52.72;25.80;;;4.60;99.90;;;;;;5057010;28;20025;-61
2022/12/05 03:14:47;;;;;;;52.50;26.13;;;4.60;99.90;;;;;;5056323;28;20021;-61
2022/12/05 03:17:20;;;;;;;52.60;26.65;;;4.70;99.90;;;;;;5056320;28;20049;-62
2022/12/05 03:20:07;;;;;;;53.35;26.58;;;4.60;99.90;;;;;;5056354;28;20025;-61
2022/12/05 03:22:40;;;;;;;53.30;26.30;;;4.60;99.90;;;;;;5056725;28;20047;-61
2022/12/05 03:25:08;;;;;;;57.20;27.08;;;4.70;99.90;;;;;;5057593;28;20331;-61
2022/12/05 03:27:43;;;;;;;59.70;27.50;;;4.80;99.90;;;;;;5039696;28;20419;-61
2022/12/05 03:30:15;;;;;;;55.50;26.30;;;4.80;99.90;;;;;;5057450;28;20080;-61
2022/12/05 03:32:54;;;;;;;52.25;26.65;;;4.80;99.90;;;;;;5056801;28;20028;-62
2022/12/05 03:35:35;;;;;;;49.70;27.52;;;4.80;99.90;;;;;;5056100;28;20193;-62
2022/12/05 03:38:12;;;;;;;55.13;26.45;;;4.80;99.90;;;;;;5039462;28;20388;-61
2022/12/05 03:40:59;;;;;;;56.42;27.73;;;4.80;99.90;;;;;;5039414;28;20124;-61
2022/12/05 03:43:42;;;;;;;53.05;26.95;;;4.70;99.90;;;;;;5056742;28;20100;-61
2022/12/05 03:46:11;;;;;;;59.63;28.13;;;4.70;99.90;;;;;;5060892;28;20412;-62
2022/12/05 03:48:51;;;;;;;53.80;27.58;;;4.70;99.90;;;;;;5060743;28;20033;-63
2022/12/05 03:51:19;;;;;;;54.08;27.52;;;4.70;99.90;;;;;;5061396;28;20115;-62
2022/12/05 03:53:58;;;;;;;55.17;26.58;;;4.70;99.90;;;;;;5043856;28;20422;-62
2022/12/05 03:56:29;;;;;;;51.50;26.80;;;4.80;99.90;;;;;;5060629;28;20036;-62
2022/12/05 03:59:06;;;;;;;52.67;26.40;;;4.80;99.90;;;;;;5059924;28;20139;-61
2022/12/05 04:01:34;;;;;;;53.92;26.02;;;4.90;99.90;;;;;;5060648;28;20021;-61
2022/12/05 04:04:23;;;;;;;53.65;27.23;;;4.90;99.90;;;;;;5060764;28;20018;-60
2022/12/05 04:06:53;;;;;;;52.13;25.75;;;4.80;99.90;;;;;;5059199;28;20073;-61
2022/12/05 04:09:25;;;;;;;47.92;24.20;;;4.90;99.90;;;;;;5060458;28;20420;-61
2022/12/05 04:11:56;;;;;;;49.47;25.30;;;4.80;99.90;;;;;;5060671;28;20025;-61
2022/12/05 04:14:33;;;;;;;46.85;24.33;;;4.80;99.90;;;;;;5059621;28;20021;-61
2022/12/05 04:17:21;;;;;;;46.95;25.15;;;4.80;99.90;;;;;;5059653;28;20032;-61
2022/12/05 04:22:41;;;;;;;;;;;4.70;99.90;;;;;;5060610;28;20044;-61
2022/12/05 04:28:28;;;;;;;50.58;25.00;;;4.70;99.90;;;;;;5060046;28;20075;-60
2022/12/05 04:31:01;;;;;;;52.45;25.98;;;4.70;99.90;;;;;;5060046;28;20043;-61
2022/12/05 04:33:55;;;;;;;48.45;25.38;;;4.70;99.90;;;;;;5060043;28;20044;-60
2022/12/05 04:36:37;;;;;;;49.08;24.88;;;4.70;99.90;;;;;;5057189;28;20034;-61
2022/12/05 04:39:12;;;;;;;52.53;26.55;;;4.70;99.90;;;;;;5059193;28;20063;-61
2022/12/05 04:41:49;;;;;;;50.50;26.15;;;4.70;99.90;;;;;;5059091;28;20021;-61
2022/12/05 04:44:19;;;;;;;53.95;27.65;;;4.80;99.90;;;;;;5059913;28;20055;-61
2022/12/05 04:46:47;;;;;;;55.53;27.35;;;4.80;99.90;;;;;;5060450;28;20020;-61
2022/12/05 04:49:20;;;;;;;51.15;26.27;;;4.80;99.90;;;;;;5060066;28;20098;-61
2022/12/05 04:51:53;;;;;;;56.75;27.80;;;4.80;99.90;;;;;;5058961;28;20031;-61
2022/12/05 04:54:25;;;;;;;61.95;28.23;;;4.90;99.90;;;;;;5060294;28;20037;-62
2022/12/05 04:56:56;;;;;;;48.85;26.00;;;4.70;99.90;;;;;;5057442;28;20304;-61
2022/12/05 04:59:22;;;;;;;50.50;27.27;;;4.70;99.90;;;;;;5059657;28;20029;-61
2022/12/05 05:01:54;;;;;;;55.35;27.15;;;4.70;99.90;;;;;;5059319;28;20058;-62
2022/12/05 05:04:31;;;;;;;54.15;27.27;;;4.80;99.90;;;;;;5059621;28;20124;-61
2022/12/05 05:06:57;;;;;;;51.55;27.35;;;4.70;99.90;;;;;;5058561;28;20321;-62
2022/12/05 05:09:22;;;;;;;56.08;27.00;;;4.70;99.90;;;;;;5058746;28;20308;-62
2022/12/05 05:11:48;;;;;;;54.85;28.05;;;4.80;99.90;;;;;;5059165;28;20043;-61
2022/12/05 05:14:14;;;;;;;55.25;28.75;;;4.70;99.90;;;;;;5059247;28;20068;-61
2022/12/05 05:16:42;;;;;;;54.70;27.42;;;4.70;99.90;;;;;;5025311;28;20108;-61
2022/12/05 05:19:10;;;;;;;54.67;28.08;;;4.80;99.90;;;;;;5059132;28;20024;-60
2022/12/05 05:21:38;;;;;;;57.40;28.45;;;4.70;99.90;;;;;;5059512;28;20312;-61
2022/12/05 05:24:05;;;;;;;54.42;27.23;;;4.70;99.90;;;;;;5059145;28;20185;-61
2022/12/05 05:26:34;;;;;;;57.00;28.30;;;4.80;99.90;;;;;;5058937;28;20108;-62
2022/12/05 05:29:00;;;;;;;54.03;27.20;;;4.90;99.90;;;;;;5058263;28;20463;-62
2022/12/05 05:31:26;;;;;;;60.10;28.48;;;4.80;99.90;;;;;;5058945;28;20107;-61
2022/12/05 05:33:55;;;;;;;51.80;27.17;;;4.80;99.90;;;;;;5058719;28;20171;-61
2022/12/05 05:36:22;;;;;;;54.47;27.08;;;4.70;99.90;;;;;;5058819;28;20058;-61
2022/12/05 05:38:50;;;;;;;48.10;25.92;;;4.70;99.90;;;;;;5058005;28;20037;-61
2022/12/05 05:41:31;;;;;;;54.00;27.27;;;4.70;99.90;;;;;;5058692;28;20044;-59
2022/12/05 05:43:58;;;;;;;56.00;27.55;;;4.80;99.90;;;;;;5057948;28;20048;-60
2022/12/05 05:46:27;;;;;;;53.55;27.77;;;4.80;99.90;;;;;;5058517;28;20355;-60
2022/12/05 05:48:53;;;;;;;50.47;26.80;;;4.80;99.90;;;;;;5057900;28;20343;-61
2022/12/05 05:51:20;;;;;;;52.70;27.90;;;4.90;99.90;;;;;;5057860;28;20025;-61
2022/12/05 05:53:46;;;;;;;54.80;27.58;;;4.90;99.90;;;;;;5041141;28;20047;-62
2022/12/05 05:56:14;;;;;;;54.90;28.10;;;5.00;99.90;;;;;;5057807;28;20381;-62
2022/12/05 05:58:40;;;;;;;53.40;27.50;;;5.00;99.90;;;;;;5058300;28;20028;-61
2022/12/05 06:01:08;;;;;;;52.95;26.90;;;5.00;99.90;;;;;;5058754;28;20415;-62
2022/12/05 06:03:35;;;;;;;47.78;26.08;;;5.10;99.90;;;;;;5058285;28;20041;-62
2022/12/05 06:06:04;;;;;;;52.35;26.17;;;5.10;99.90;;;;;;5057984;28;20061;-62
2022/12/05 06:08:31;;;;;;;48.65;25.98;;;5.00;99.90;;;;;;5057029;28;20037;-62
2022/12/05 06:10:57;;;;;;;46.85;25.88;;;4.90;99.90;;;;;;5058251;28;20036;-60
2022/12/05 06:13:23;;;;;;;52.53;26.92;;;5.00;99.90;;;;;;5058121;28;20317;-61
2022/12/05 06:15:49;;;;;;;54.65;27.48;;;4.90;99.90;;;;;;5058135;28;20296;-61
2022/12/05 06:18:15;;;;;;;55.83;29.65;;;5.00;99.90;;;;;;5057252;28;20029;-61
2022/12/05 06:20:40;;;;;;;54.40;26.67;;;5.10;99.90;;;;;;5057396;28;20029;-60
2022/12/05 06:23:06;;;;;;;53.92;28.08;;;5.10;99.90;;;;;;5057897;28;20033;-61
2022/12/05 06:25:32;;;;;;;53.38;27.65;;;5.10;99.90;;;;;;5040608;28;20063;-62
2022/12/05 06:27:58;;;;;;;53.97;27.98;;;5.00;99.90;;;;;;5056960;28;20037;-61
2022/12/05 06:30:24;;;;;;;54.88;28.08;;;5.00;99.90;;;;;;5057019;28;20098;-63
2022/12/05 06:32:50;;;;;;;57.75;30.08;;;5.00;99.90;;;;;;5057652;28;20020;-61
2022/12/05 06:35:16;;;;;;;55.33;28.77;;;5.00;99.90;;;;;;5058260;28;20028;-61
2022/12/05 06:37:43;;;;;;;56.25;28.83;;;5.00;99.90;;;;;;5056921;28;20120;-61
2022/12/05 06:40:13;;;;;;;61.22;29.20;;;5.00;99.90;;;;;;5040149;28;20020;-61
2022/12/05 06:42:38;;;;;;;58.95;28.80;;;5.10;99.90;;;;;;5057635;28;20065;-61
2022/12/05 06:45:05;;;;;;;60.28;29.90;;;5.10;99.90;;;;;;5056868;28;20032;-61
2022/12/05 06:47:31;;;;;;;61.05;29.20;;;5.10;99.90;;;;;;5057024;28;20033;-61
2022/12/05 06:49:57;;;;;;;58.83;29.90;;;5.00;99.90;;;;;;5023686;28;20420;-61
2022/12/05 06:52:23;;;;;;;52.63;28.90;;;5.00;99.90;;;;;;5039991;28;20059;-61
2022/12/05 06:54:48;;;;;;;64.55;31.27;;;5.10;99.90;;;;;;5039990;28;20052;-61
2022/12/05 06:57:14;;;;;;;57.53;29.40;;;5.00;99.90;;;;;;5056512;28;20059;-61
2022/12/05 06:59:40;;;;;;;59.25;29.85;;;5.10;99.90;;;;;;5057822;28;20112;-61
2022/12/05 07:02:07;;;;;;;62.25;29.85;;;5.10;99.90;;;;;;5056293;28;20047;-60
2022/12/05 07:04:33;;;;;;;52.95;28.58;;;4.90;99.90;;;;;;5057292;28;20021;-61
2022/12/05 07:07:01;;;;;;;54.70;29.17;;;4.90;99.90;;;;;;5056157;28;20068;-61
2022/12/05 07:09:47;;;;;;;62.00;29.90;;;5.00;99.90;;;;;;5056426;28;20033;-62
2022/12/05 07:12:15;;;;;;;60.88;29.98;;;5.20;99.90;;;;;;5056667;28;20033;-61
2022/12/05 07:14:41;;;;;;;57.10;29.52;;;5.20;99.90;;;;;;5056439;28;20032;-62
2022/12/05 07:17:08;;;;;;;57.03;29.35;;;5.10;99.90;;;;;;5057206;28;20086;-63
2022/12/05 07:19:34;;;;;;;60.88;29.13;;;5.10;99.90;;;;;;5055666;28;20025;-61
2022/12/05 07:22:00;;;;;;;58.15;29.15;;;5.00;99.90;;;;;;5056286;28;20024;-62
2022/12/05 07:24:26;;;;;;;56.80;29.05;;;5.00;99.90;;;;;;5057418;28;20033;-62
2022/12/05 07:26:52;;;;;;;58.25;30.02;;;5.00;99.90;;;;;;5057057;28;20032;-62
2022/12/05 07:29:18;;;;;;;61.72;29.33;;;5.10;99.90;;;;;;5039881;28;20098;-62
2022/12/05 07:31:44;;;;;;;51.88;27.15;;;5.10;99.90;;;;;;5056097;28;20033;-60
2022/12/05 07:34:10;;;;;;;58.78;29.67;;;6.00;99.90;;;;;;5055913;28;20029;-60
2022/12/05 07:36:35;;;;;;;63.78;30.25;;;5.80;99.90;;;;;;5056691;28;20351;-60
2022/12/05 07:39:01;;;;;;;55.20;27.70;;;5.60;99.90;;;;;;5056231;28;20056;-61
2022/12/05 07:41:30;;;;;;;56.97;28.38;;;5.50;99.90;;;;;;5056263;28;20051;-61
2022/12/05 07:43:57;;;;;;;57.20;29.15;;;5.50;99.90;;;;;;5055869;28;20025;-61
2022/12/05 07:46:24;;;;;;;53.97;28.83;;;5.50;99.90;;;;;;5056662;28;20301;-64
2022/12/05 07:48:50;;;;;;;55.97;28.73;;;5.40;99.90;;;;;;5055836;28;20035;-62
2022/12/05 07:51:17;;;;;;;57.20;30.42;;;6.40;99.90;;;;;;5056695;28;20392;-62
2022/12/05 07:53:43;;;;;;;55.72;28.80;;;6.00;99.90;;;;;;5055950;28;20029;-61
2022/12/05 07:56:13;;;;;;;54.78;29.38;;;5.80;99.90;;;;;;5055910;28;20029;-61
2022/12/05 07:58:39;;;;;;;56.97;29.15;;;5.70;99.90;;;;;;5055924;28;20041;-61
2022/12/05 08:01:06;;;;;;;52.47;27.23;;;5.50;99.90;;;;;;5057149;28;20056;-61
2022/12/05 08:03:32;;;;;;;58.15;29.90;;;5.50;99.90;;;;;;5056500;28;20024;-61
2022/12/05 08:06:06;;;;;;;56.55;29.17;;;5.40;99.90;;;;;;5056483;28;20045;-61
2022/12/05 08:08:32;;;;;;;56.42;29.80;;;5.40;99.90;;;;;;5056564;28;20068;-61
2022/12/05 08:11:05;;;;;;;62.47;29.65;;;5.50;99.90;;;;;;5056036;28;20056;-61
2022/12/05 08:13:31;;;;;;;56.27;30.77;;;5.50;99.90;;;;;;5056276;28;20025;-61
2022/12/05 08:16:01;;;;;;;57.97;29.63;;;5.50;99.90;;;;;;5055709;28;20435;-61
2022/12/05 08:18:27;;;;;;;62.45;30.52;;;5.40;99.90;;;;;;5055789;28;20353;-61
2022/12/05 08:20:53;;;;;;;59.78;30.48;;;5.50;99.90;;;;;;5056436;28;20029;-62
2022/12/05 08:23:18;;;;;;;58.50;31.30;;;5.40;99.90;;;;;;5055649;28;20116;-61
2022/12/05 08:25:45;;;;;;;58.50;30.00;;;5.40;99.90;;;;;;5056255;28;20037;-62
2022/12/05 08:28:10;;;;;;;58.60;30.23;;;5.30;99.90;;;;;;5038839;28;20098;-62
2022/12/05 08:30:36;;;;;;;53.53;28.92;;;5.30;99.90;;;;;;5056281;28;20021;-61
2022/12/05 08:33:02;;;;;;;58.50;30.40;;;5.50;99.90;;;;;;5060260;28;20120;-62
2022/12/05 08:35:28;;;;;;;57.13;30.02;;;5.50;99.90;;;;;;5042607;28;20048;-61
2022/12/05 08:37:54;;;;;;;55.40;30.20;;;5.60;99.90;;;;;;5059904;28;20032;-61
2022/12/05 08:40:19;;;;;;;61.60;31.13;;;5.60;99.90;;;;;;5059873;28;20032;-62
2022/12/05 08:42:45;;;;;;;56.67;30.63;;;5.50;99.90;;;;;;5060062;28;20033;-61
2022/12/05 08:45:11;;;;;;;58.83;30.25;;;5.50;99.90;;;;;;5060072;28;20033;-61
2022/12/05 08:47:37;;;;;;;56.00;29.05;;;5.60;99.90;;;;;;5059734;28;20029;-61
2022/12/05 08:50:03;;;;;;;63.30;31.23;;;5.60;99.90;;;;;;5059696;28;20029;-61
2022/12/05 08:52:29;;;;;;;60.60;31.90;;;5.60;99.90;;;;;;5059534;28;20044;-59
2022/12/05 08:54:54;;;;;;;56.47;29.85;;;5.50;99.90;;;;;;5058894;28;20036;-61
2022/12/05 08:57:20;;;;;;;63.63;30.50;;;5.50;99.90;;;;;;5059475;28;20360;-58
2022/12/05 08:59:46;;;;;;;56.17;29.77;;;5.50;99.90;;;;;;5059554;28;20108;-59
2022/12/05 09:02:12;;;;;;;57.50;30.65;;;5.50;99.90;;;;;;5058733;28;20029;-59
2022/12/05 09:04:37;;;;;;;55.42;30.15;;;5.50;99.90;;;;;;5059393;28;20116;-60
2022/12/05 09:07:03;;;;;;;57.13;29.65;;;5.50;99.90;;;;;;5059231;28;20140;-59
2022/12/05 09:09:31;;;;;;;60.03;29.90;;;5.50;99.90;;;;;;5059300;28;20409;-59
2022/12/05 09:11:57;;;;;;;57.28;30.52;;;5.60;99.90;;;;;;5058499;28;20040;-59
2022/12/05 09:14:23;;;;;;;55.13;29.60;;;5.60;99.90;;;;;;5058614;28;20389;-60
2022/12/05 09:16:49;;;;;;;57.17;30.98;;;5.70;99.90;;;;;;5059723;28;20296;-60
2022/12/05 09:19:23;;;;;;;59.90;30.27;;;5.80;99.90;;;;;;5058481;28;20124;-60
2022/12/05 09:21:49;;;;;;;56.80;30.08;;;5.80;99.90;;;;;;5042447;28;20029;-59
2022/12/05 09:24:15;;;;;;;54.58;29.70;;;5.80;99.90;;;;;;5058273;28;20040;-59
2022/12/05 09:26:41;;;;;;;56.50;29.60;;;5.80;99.90;;;;;;5058911;28;20032;-59
2022/12/05 09:29:09;;;;;;;56.85;29.30;;;5.80;99.90;;;;;;5058910;28;20115;-59
2022/12/05 09:31:35;;;;;;;51.45;28.55;;;5.90;99.90;;;;;;5058893;28;20025;-59
2022/12/05 09:34:01;;;;;;;51.70;28.73;;;5.90;99.90;;;;;;5058141;28;20079;-60
2022/12/05 09:36:29;;;;;;;49.55;28.17;;;5.90;99.90;;;;;;5058021;28;20037;-60
2022/12/05 09:38:59;;;;;;;46.00;26.52;;;5.90;99.90;;;;;;5057982;28;20025;-60
2022/12/05 09:44:44;;;;;;;47.95;26.00;;;5.80;99.90;;;;;;5058702;28;20090;-60
2022/12/05 09:47:25;;;;;;;49.58;25.70;;;5.90;99.90;;;;;;5058508;28;20044;-61
2022/12/05 09:49:58;;;;;;;42.33;25.08;;;5.80;99.90;;;;;;5059192;28;20360;-61
2022/12/05 09:52:34;;;;;;;46.53;26.40;;;5.90;99.90;;;;;;5057773;28;20304;-61
2022/12/05 09:55:15;;;;;;;43.88;25.52;;;6.00;99.90;;;;;;5058541;28;20380;-61
2022/12/05 09:58:02;;;;;;;46.20;25.10;;;6.00;99.90;;;;;;5057777;28;20036;-61
2022/12/05 10:00:31;;;;;;;41.83;23.60;;;6.10;99.90;;;;;;5058257;28;20048;-60
2022/12/05 10:03:02;;;;;;;44.22;24.70;;;6.00;99.90;;;;;;5058190;28;20029;-60
2022/12/05 10:05:48;;;;;;;46.15;26.25;;;6.00;99.90;;;;;;5058132;28;20113;-59
2022/12/05 10:08:23;;;;;;;43.20;25.05;;;6.00;99.90;;;;;;5058382;28;20311;-60
2022/12/05 10:11:11;;;;;;;43.50;24.40;;;6.00;99.90;;;;;;5057696;28;20155;-59
2022/12/05 10:13:54;;;;;;;41.53;23.83;;;6.00;99.90;;;;;;5058013;28;20029;-58
2022/12/05 10:16:45;;;;;;;41.35;24.08;;;6.00;99.90;;;;;;5058097;28;20075;-59
2022/12/05 10:19:29;;;;;;;43.60;24.30;;;6.00;99.90;;;;;;5058029;28;20036;-59
2022/12/05 10:21:57;;;;;;;40.78;23.48;;;6.10;99.90;;;;;;5057189;28;20044;-59
2022/12/05 10:24:37;;;;;;;47.28;24.08;;;6.20;99.90;;;;;;5057117;28;20065;-59
2022/12/05 10:27:10;;;;;;;40.42;23.02;;;6.10;99.90;;;;;;5057813;28;20044;-59
2022/12/05 10:29:46;;;;;;;39.83;22.90;;;6.20;99.90;;;;;;5057605;28;20348;-59
2022/12/05 10:32:14;;;;;;;36.90;21.70;;;6.30;99.90;;;;;;5057660;28;20032;-59
2022/12/05 10:34:42;;;;;;;40.42;23.20;;;6.30;99.90;;;;;;5057659;28;20021;-60
2022/12/05 10:37:18;;;;;;;37.17;21.45;;;6.40;99.90;;;;;;5057698;28;20029;-59
2022/12/05 10:39:45;;;;;;;38.35;22.55;;;6.30;99.90;;;;;;5057576;28;20029;-59
2022/12/05 10:42:24;;;;;;;36.30;21.50;;;6.40;99.90;;;;;;5056758;28;20132;-59
2022/12/05 10:44:57;;;;;;;35.70;20.70;;;6.50;99.90;;;;;;5057458;28;20029;-59
2022/12/05 10:47:22;;;;;;;32.90;20.90;;;6.60;99.90;;;;;;5057839;28;20120;-59
2022/12/05 10:49:49;;;;;;;38.88;22.10;;;6.60;99.90;;;;;;5058037;28;20056;-59
2022/12/05 10:52:15;;;;;;;33.83;21.10;;;6.60;99.90;;;;;;5057604;28;20440;-59
2022/12/05 10:54:48;;;;;;;36.95;22.75;;;6.60;99.90;;;;;;5057231;28;20029;-59
2022/12/05 10:57:23;;;;;;;34.45;20.88;;;6.70;99.90;;;;;;5057803;28;20021;-59
2022/12/05 10:59:49;;;;;;;34.08;20.67;;;6.60;99.90;;;;;;5057173;28;20033;-59
2022/12/05 11:02:24;;;;;;;36.97;21.08;;;6.60;99.90;;;;;;5057185;28;20037;-59
2022/12/05 11:04:51;;;;;;;34.22;21.83;;;6.70;99.90;;;;;;5056399;28;20037;-59
2022/12/05 11:07:34;;;;;;;36.10;21.75;;;6.70;99.90;;;;;;5057131;28;20294;-59
2022/12/05 11:10:03;;;;;;;34.45;20.63;;;6.70;99.90;;;;;;5057201;28;20059;-58
2022/12/05 11:12:32;;;;;;;36.50;21.27;;;6.70;99.90;;;;;;5056990;28;20067;-58
2022/12/05 11:15:04;;;;;;;37.47;22.05;;;6.80;99.90;;;;;;5056325;28;20369;-59
2022/12/05 11:17:38;;;;;;;34.03;21.23;;;6.70;99.90;;;;;;5057001;28;20071;-58
2022/12/05 11:20:19;;;;;;;33.20;20.70;;;6.60;99.90;;;;;;5057242;28;20063;-59
2022/12/05 11:22:50;;;;;;;36.20;21.00;;;6.60;99.90;;;;;;5056851;28;20387;-58
2022/12/05 11:25:24;;;;;;;39.13;22.30;;;6.60;99.90;;;;;;5057222;28;20033;-58
2022/12/05 11:27:50;;;;;;;35.03;22.15;;;6.70;99.90;;;;;;5056791;28;20336;-58
2022/12/05 11:30:21;;;;;;;34.28;21.40;;;6.60;99.90;;;;;;5057073;28;20060;-59
2022/12/05 11:32:48;;;;;;;37.63;22.00;;;6.60;99.90;;;;;;5056621;28;20112;-58
2022/12/05 11:35:27;;;;;;;35.78;22.48;;;6.60;99.90;;;;;;5056164;28;20105;-59
2022/12/05 11:38:01;;;;;;;40.22;23.10;;;6.60;99.90;;;;;;5056284;28;20033;-59
2022/12/05 11:40:35;;;;;;;35.78;21.88;;;6.70;99.90;;;;;;5055531;28;20025;-59
2022/12/05 11:43:22;;;;;;;36.47;21.10;;;6.80;99.90;;;;;;5056931;28;20033;-59
2022/12/05 11:45:53;;;;;;;33.15;20.13;;;6.80;99.90;;;;;;5057259;28;20033;-58
2022/12/05 11:48:25;;;;;;;34.45;20.70;;;6.90;99.90;;;;;;5056666;28;20025;-59
2022/12/05 11:50:51;;;;;;;24.00;14.30;;;6.90;99.90;;;;;;5056632;28;20102;-59
2022/12/05 11:53:39;;;;;;;33.35;20.33;;;6.90;99.90;;;;;;5056510;28;20033;-59
2022/12/05 11:56:34;;;;;;;29.17;18.05;;;7.00;99.90;;;;;;5056920;28;20025;-58
2022/12/05 11:59:30;;;;;;;29.55;17.95;;;7.00;99.90;;;;;;5056549;28;20029;-60
2022/12/05 12:02:21;;;;;;;30.50;19.80;;;7.00;99.90;;;;;;5055880;28;20047;-60
2022/12/05 12:05:21;;;;;;;31.65;19.58;;;7.10;99.90;;;;;;5055930;28;20331;-59
2022/12/05 12:08:08;;;;;;;32.47;19.00;;;7.10;99.90;;;;;;5060461;28;20135;-59
2022/12/05 12:10:45;;;;;;;31.70;18.92;;;7.10;99.90;;;;;;5060323;28;20025;-59
2022/12/05 12:13:39;;;;;;;31.58;19.13;;;7.20;99.90;;;;;;5060272;28;20025;-59
2022/12/05 12:16:33;;;;;;;27.50;18.40;;;7.20;99.90;;;;;;5061262;28;20090;-59
2022/12/05 12:19:16;;;;;;;33.45;20.67;;;7.20;99.90;;;;;;5059753;28;20055;-59
2022/12/05 12:22:14;;;;;;;34.92;21.40;;;7.20;99.90;;;;;;5060255;28;20040;-59
2022/12/05 12:24:54;;;;;;;32.35;20.80;;;7.00;99.90;;;;;;5060188;28;20348;-59
2022/12/05 12:27:51;;;;;;;32.30;21.40;;;6.90;99.90;;;;;;5060106;28;20029;-58
2022/12/05 12:30:33;;;;;;;36.58;21.30;;;6.90;99.90;;;;;;5059734;28;20164;-59
2022/12/05 12:32:58;;;;;;;35.28;20.73;;;7.00;99.90;;;;;;5060168;28;20135;-59
2022/12/05 12:35:38;;;;;;;37.80;22.20;;;6.90;99.90;;;;;;5059935;28;20107;-60
2022/12/05 12:38:41;;;;;;;32.03;20.20;;;6.70;99.90;;;;;;5059968;28;20079;-57
2022/12/05 12:41:13;;;;;;;34.55;21.17;;;6.70;99.90;;;;;;5059908;28;20037;-57
2022/12/05 12:44:01;;;;;;;36.97;21.48;;;6.50;99.90;;;;;;5059842;28;20036;-58
2022/12/05 12:46:56;;;;;;;34.47;20.70;;;6.50;99.90;;;;;;5059762;28;20104;-59
2022/12/05 12:49:44;;;;;;;33.67;20.50;;;6.50;99.90;;;;;;5060181;28;20033;-58
2022/12/05 12:52:52;;;;;;;33.17;19.58;;;6.50;99.90;;;;;;5060341;28;20522;-60
2022/12/05 12:55:26;;;;;;;30.00;18.80;;;6.50;99.90;;;;;;5059899;28;20083;-59
2022/12/05 12:58:16;;;;;;;32.92;20.23;;;6.60;99.90;;;;;;5059027;28;20068;-59
2022/12/05 13:01:02;;;;;;;31.83;19.67;;;6.70;99.90;;;;;;5059446;28;20025;-59
2022/12/05 13:03:43;;;;;;;31.75;19.05;;;6.70;99.90;;;;;;5059512;28;20100;-59
2022/12/05 13:06:47;;;;;;;28.33;18.35;;;6.70;99.90;;;;;;5059204;28;20057;-59
2022/12/05 13:09:47;;;;;;;25.40;17.27;;;6.80;99.90;;;;;;5059339;28;20041;-60
2022/12/05 13:12:19;;;;;;;26.80;17.75;;;6.80;99.90;;;;;;5059172;28;20412;-59
2022/12/05 13:14:54;;;;;;;29.77;17.80;;;6.90;99.90;;;;;;5058653;28;20039;-59